PER weather

Perth International Airport
Perth, Western Australia, Australia

Public forecast

Using degrees Celsius for public forecast. Weather courtesy of forecast.io.

METAR (pilot weather report)

Retrieved 2019/02/16 05:00 UTC (15 minutes ago):

YPPH 160500Z 27014KT CAVOK 29/15 Q1016 NOSIG

TAF (pilot weather forecast)

Forecast is more than 12 hours old.

Retrieved 2019/02/15 00:00 UTC (1 day ago):

TAF YPPH 152300Z 1600/1706 19008KT CAVOK FM160700 23016KT CAVOK FM161400 11014KT CAVOK